createdAt,value
2018-05-13T00:01:55.795Z,66.80
2018-05-13T00:04:23.420Z,66.90
2018-05-13T00:06:51.813Z,66.40
2018-05-13T00:09:19.445Z,66.30
2018-05-13T00:11:47.836Z,66.00
2018-05-13T00:14:16.220Z,65.50
2018-05-13T00:16:44.938Z,65.50
2018-05-13T00:19:12.551Z,65.40
2018-05-13T00:21:41.182Z,64.60
2018-05-13T00:24:08.799Z,64.50
2018-05-13T00:26:36.461Z,64.00
2018-05-13T00:29:04.864Z,63.60
2018-05-13T00:31:32.479Z,62.90
2018-05-13T00:34:00.109Z,62.00
2018-05-13T00:36:28.069Z,62.60
2018-05-13T00:38:55.680Z,62.50
2018-05-13T00:41:24.067Z,62.10
2018-05-13T00:43:52.452Z,62.10
2018-05-13T00:46:20.831Z,62.40
2018-05-13T00:48:48.834Z,62.20
2018-05-13T00:51:16.436Z,62.50
2018-05-13T00:53:44.828Z,63.30
2018-05-13T00:56:13.200Z,63.60
2018-05-13T00:58:41.588Z,63.90
2018-05-13T01:01:09.968Z,64.20
2018-05-13T01:03:38.347Z,64.40
2018-05-13T01:06:05.968Z,64.40
2018-05-13T01:08:33.580Z,64.50
2018-05-13T01:11:01.461Z,64.50
2018-05-13T01:13:29.077Z,64.60
2018-05-13T01:15:57.459Z,65.30
2018-05-13T01:18:25.827Z,65.30
2018-05-13T01:20:54.215Z,65.30
2018-05-13T01:23:22.599Z,65.60
2018-05-13T01:25:50.979Z,65.80
2018-05-13T01:28:18.589Z,65.70
2018-05-13T01:30:46.211Z,65.60
2018-05-13T01:33:13.832Z,65.60
2018-05-13T01:35:41.440Z,66.10
2018-05-13T01:38:09.052Z,65.90
2018-05-13T01:40:36.664Z,66.00
2018-05-13T01:43:04.281Z,64.90
2018-05-13T01:45:32.667Z,65.80
2018-05-13T01:48:01.052Z,66.10
2018-05-13T01:50:29.441Z,66.30
2018-05-13T01:52:57.072Z,66.30
2018-05-13T01:55:25.456Z,66.20
2018-05-13T01:57:54.191Z,66.50
2018-05-13T02:00:21.808Z,66.40
2018-05-13T02:02:50.180Z,66.20
2018-05-13T02:05:18.580Z,66.00
2018-05-13T02:07:46.195Z,65.90
2018-05-13T02:10:13.804Z,66.00
2018-05-13T02:12:41.459Z,66.50
2018-05-13T02:15:09.065Z,66.60
2018-05-13T02:17:36.685Z,67.00
2018-05-13T02:20:04.324Z,67.30
2018-05-13T02:22:32.744Z,68.00
2018-05-13T02:25:00.366Z,67.90
2018-05-13T02:27:28.739Z,68.70
2018-05-13T02:29:57.120Z,69.20
2018-05-13T02:32:25.503Z,69.50
2018-05-13T02:34:53.135Z,69.50
2018-05-13T02:37:20.744Z,69.80
2018-05-13T02:39:48.393Z,70.40
2018-05-13T02:42:16.029Z,70.80
2018-05-13T02:44:44.408Z,71.50
2018-05-13T02:47:12.804Z,71.60
2018-05-13T02:49:40.420Z,71.60
2018-05-13T02:52:09.544Z,72.30
2018-05-13T02:54:37.928Z,72.70
2018-05-13T02:57:06.300Z,72.80
2018-05-13T02:59:34.700Z,73.00
2018-05-13T03:02:02.317Z,73.00
2018-05-13T03:04:29.938Z,73.50
2018-05-13T03:06:57.544Z,74.50
2018-05-13T03:09:25.463Z,73.80
2018-05-13T03:11:53.078Z,74.00
2018-05-13T03:14:21.452Z,74.20
2018-05-13T03:16:49.864Z,74.30
2018-05-13T03:19:17.487Z,74.30
2018-05-13T03:21:45.900Z,74.30
2018-05-13T03:24:13.509Z,74.10
2018-05-13T03:26:41.140Z,74.80
2018-05-13T03:29:08.764Z,74.50
2018-05-13T03:31:37.135Z,74.30
2018-05-13T03:34:05.520Z,73.70
2018-05-13T03:36:33.892Z,74.50
2018-05-13T03:39:02.291Z,74.30
2018-05-13T03:41:29.915Z,74.30
2018-05-13T03:43:58.299Z,74.20
2018-05-13T03:46:26.668Z,74.20
2018-05-13T03:48:55.060Z,73.70
2018-05-13T03:51:23.455Z,73.90
2018-05-13T03:53:51.078Z,73.80
2018-05-13T03:56:18.742Z,73.90
2018-05-13T03:58:47.135Z,74.40
2018-05-13T04:01:15.526Z,74.40
2018-05-13T04:03:43.136Z,74.40
2018-05-13T04:06:10.780Z,74.30
2018-05-13T04:08:50.262Z,74.30
2018-05-13T04:11:30.559Z,74.40
2018-05-13T04:14:09.923Z,73.60
2018-05-13T04:16:38.386Z,74.90
2018-05-13T04:19:06.002Z,74.50
2018-05-13T04:21:34.387Z,75.10
2018-05-13T04:24:02.759Z,74.60
2018-05-13T04:26:31.148Z,75.50
2018-05-13T04:28:59.045Z,75.30
2018-05-13T04:31:26.659Z,75.80
2018-05-13T04:33:55.044Z,73.90
2018-05-13T04:36:23.427Z,74.30
2018-05-13T04:38:51.064Z,74.20
2018-05-13T04:41:18.672Z,73.50
2018-05-13T04:43:46.296Z,74.00
2018-05-13T04:46:14.676Z,73.40
2018-05-13T04:48:43.076Z,72.90
2018-05-13T04:51:10.772Z,72.80
2018-05-13T04:53:38.389Z,72.80
2018-05-13T04:56:06.011Z,72.60
2018-05-13T04:58:33.628Z,72.60
2018-05-13T05:01:01.253Z,72.10
2018-05-13T05:03:29.632Z,70.30
2018-05-13T05:05:58.020Z,70.30
2018-05-13T05:08:26.411Z,70.60
2018-05-13T05:10:54.024Z,70.50
2018-05-13T05:13:21.688Z,70.40
2018-05-13T05:15:49.300Z,70.90
2018-05-13T05:18:16.931Z,69.80
2018-05-13T05:20:45.304Z,70.40
2018-05-13T05:23:13.691Z,69.90
2018-05-13T05:25:42.061Z,69.20
2018-05-13T05:28:10.440Z,68.00
2018-05-13T05:30:38.820Z,67.40
2018-05-13T05:33:07.243Z,66.20
2018-05-13T05:35:34.863Z,66.10
2018-05-13T05:38:02.870Z,65.60
2018-05-13T05:40:30.488Z,65.30
2018-05-13T05:42:58.864Z,64.40
2018-05-13T05:45:27.257Z,63.50
2018-05-13T05:47:54.875Z,63.50
2018-05-13T05:50:22.496Z,63.30
2018-05-13T05:52:50.368Z,62.10
2018-05-13T05:55:17.996Z,62.10
2018-05-13T05:57:45.600Z,61.50
2018-05-13T06:00:13.208Z,60.50
2018-05-13T06:02:41.600Z,60.20
2018-05-13T06:05:09.212Z,60.10
2018-05-13T06:07:36.836Z,60.40
2018-05-13T06:10:04.456Z,58.20
2018-05-13T06:12:32.856Z,58.30
2018-05-13T06:15:00.480Z,58.20
2018-05-13T06:17:28.100Z,58.30
2018-05-13T06:19:56.353Z,58.30
2018-05-13T06:22:24.348Z,56.70
2018-05-13T06:24:51.964Z,55.40
2018-05-13T06:27:20.344Z,55.10
2018-05-13T06:29:48.727Z,54.70
2018-05-13T06:32:16.352Z,54.70
2018-05-13T06:34:43.964Z,53.90
2018-05-13T06:37:11.840Z,52.80
2018-05-13T06:39:39.483Z,51.40
2018-05-13T06:42:07.112Z,51.90
2018-05-13T06:44:35.484Z,52.20
2018-05-13T06:47:03.140Z,51.50
2018-05-13T06:49:30.753Z,52.20
2018-05-13T06:51:58.368Z,50.30
2018-05-13T06:54:25.987Z,50.40
2018-05-13T06:56:53.595Z,50.60
2018-05-13T06:59:21.996Z,48.40
2018-05-13T07:01:49.611Z,48.30
2018-05-13T07:04:17.220Z,48.30
2018-05-13T07:06:44.854Z,48.40
2018-05-13T07:09:13.240Z,48.60
2018-05-13T07:11:41.625Z,48.70
2018-05-13T07:14:09.244Z,48.70
2018-05-13T07:16:36.874Z,48.30
2018-05-13T07:19:04.493Z,47.30
2018-05-13T07:21:32.870Z,46.60
2018-05-13T07:24:01.267Z,47.60
2018-05-13T07:26:28.892Z,47.50
2018-05-13T07:28:56.500Z,48.30
2018-05-13T07:31:24.130Z,47.50
2018-05-13T07:33:51.759Z,46.90
2018-05-13T07:36:19.389Z,45.70
2018-05-13T07:38:47.011Z,45.70
2018-05-13T07:41:15.844Z,43.70
2018-05-13T07:43:43.447Z,43.60
2018-05-13T07:46:11.836Z,43.60
2018-05-13T07:48:40.232Z,44.30
2018-05-13T07:51:07.858Z,44.20
2018-05-13T07:53:36.247Z,43.10
2018-05-13T07:56:04.976Z,41.20
2018-05-13T07:58:32.631Z,41.20
2018-05-13T08:01:00.260Z,41.50
2018-05-13T08:03:28.632Z,40.90
2018-05-13T08:05:57.053Z,41.30
2018-05-13T08:08:24.663Z,41.20
2018-05-13T08:10:53.301Z,40.70
2018-05-13T08:13:20.918Z,40.70
2018-05-13T08:15:49.300Z,38.30
2018-05-13T08:18:17.683Z,37.80
2018-05-13T08:20:45.292Z,37.80
2018-05-13T08:23:12.915Z,37.30
2018-05-13T08:25:40.534Z,36.40
2018-05-13T08:28:08.164Z,37.20
2018-05-13T08:30:36.543Z,36.00
2018-05-13T08:33:04.167Z,35.30
2018-05-13T08:35:31.787Z,33.70
2018-05-13T08:37:59.413Z,33.50
2018-05-13T08:40:27.051Z,32.20
2018-05-13T08:42:54.677Z,31.60
2018-05-13T08:45:23.066Z,31.80
2018-05-13T08:47:51.474Z,32.10
2018-05-13T08:50:19.098Z,31.90
2018-05-13T08:52:47.508Z,30.20
2018-05-13T08:55:15.148Z,30.30
2018-05-13T08:57:43.540Z,31.00
2018-05-13T09:00:11.536Z,31.00
2018-05-13T09:02:39.152Z,31.70
2018-05-13T09:05:07.528Z,30.60
2018-05-13T09:07:35.913Z,28.40
2018-05-13T09:10:03.918Z,28.20
2018-05-13T09:12:31.534Z,29.20
2018-05-13T09:14:59.958Z,30.00
2018-05-13T09:17:27.822Z,30.00
2018-05-13T09:19:55.444Z,29.90
2018-05-13T09:22:23.828Z,29.10
2018-05-13T09:24:51.462Z,29.00
2018-05-13T09:27:19.084Z,29.10
2018-05-13T09:29:46.787Z,28.90
2018-05-13T09:32:15.164Z,29.00
2018-05-13T09:34:43.552Z,28.80
2018-05-13T09:37:11.928Z,28.60
2018-05-13T09:39:40.321Z,28.10
2018-05-13T09:42:07.939Z,28.00
2018-05-13T09:44:35.548Z,27.90
2018-05-13T09:47:03.178Z,27.90
2018-05-13T09:49:31.554Z,27.60
2018-05-13T09:51:59.939Z,27.70
2018-05-13T09:54:28.324Z,27.80
2018-05-13T09:56:56.700Z,27.50
2018-05-13T09:59:25.083Z,27.10
2018-05-13T10:01:53.465Z,28.20
2018-05-13T10:04:21.071Z,28.20
2018-05-13T10:06:48.732Z,27.20
2018-05-13T10:09:16.348Z,28.00
2018-05-13T10:11:44.242Z,28.50
2018-05-13T10:14:12.621Z,28.90
2018-05-13T10:16:40.239Z,29.40
2018-05-13T10:19:08.635Z,29.30
2018-05-13T10:21:36.243Z,28.80
2018-05-13T10:24:03.881Z,28.90
2018-05-13T10:26:31.508Z,29.00
2018-05-13T10:28:59.140Z,29.40
2018-05-13T10:31:26.785Z,29.40
2018-05-13T10:33:54.464Z,29.30
2018-05-13T10:36:22.093Z,29.70
2018-05-13T10:38:49.727Z,28.70
2018-05-13T10:41:17.349Z,29.00
2018-05-13T10:43:46.089Z,28.50
2018-05-13T10:46:13.704Z,28.40
2018-05-13T10:48:42.092Z,28.10
2018-05-13T10:51:09.700Z,28.10
2018-05-13T10:53:37.327Z,28.80
2018-05-13T10:56:04.996Z,28.30
2018-05-13T10:58:32.600Z,27.50
2018-05-13T11:01:00.239Z,27.10
2018-05-13T11:03:27.860Z,26.40
2018-05-13T11:05:55.475Z,26.30
2018-05-13T11:08:23.105Z,26.80
2018-05-13T11:10:50.724Z,25.80
2018-05-13T11:13:19.124Z,28.00
2018-05-13T11:15:46.744Z,28.00
2018-05-13T11:18:15.140Z,27.80
2018-05-13T11:20:43.603Z,27.40
2018-05-13T11:23:11.185Z,27.40
2018-05-13T11:25:38.803Z,26.80
2018-05-13T11:28:06.436Z,26.40
2018-05-13T11:30:34.049Z,25.20
2018-05-13T11:33:02.462Z,25.80
2018-05-13T11:35:30.108Z,25.80
2018-05-13T11:37:58.015Z,26.70
2018-05-13T11:40:25.652Z,25.90
2018-05-13T11:42:53.283Z,25.00
2018-05-13T11:45:20.940Z,24.40
2018-05-13T11:47:49.341Z,24.60
2018-05-13T11:50:16.963Z,24.60
2018-05-13T11:52:44.603Z,23.90
2018-05-13T11:55:12.233Z,24.70
2018-05-13T11:57:39.853Z,24.90
2018-05-13T12:00:08.240Z,25.70
2018-05-13T12:02:35.863Z,25.20
2018-05-13T12:05:03.505Z,25.10
2018-05-13T12:07:31.136Z,24.60
2018-05-13T12:09:58.764Z,24.20
2018-05-13T12:12:27.160Z,23.40
2018-05-13T12:14:55.548Z,23.20
2018-05-13T12:17:23.163Z,23.20
2018-05-13T12:19:50.783Z,22.60
2018-05-13T12:22:18.407Z,22.90
2018-05-13T12:24:46.792Z,21.90
2018-05-13T12:27:15.190Z,21.70
2018-05-13T12:29:42.809Z,21.70
2018-05-13T12:32:10.480Z,21.30
2018-05-13T12:34:38.860Z,20.10
2018-05-13T12:37:07.244Z,19.80
2018-05-13T12:39:35.632Z,19.40
2018-05-13T12:42:04.059Z,19.40
2018-05-13T12:44:31.696Z,19.40
2018-05-13T12:46:59.315Z,18.70
2018-05-13T12:49:27.691Z,18.70
2018-05-13T12:51:56.102Z,18.20
2018-05-13T12:54:23.749Z,18.20
2018-05-13T12:56:51.368Z,17.50
2018-05-13T12:59:18.998Z,16.80
2018-05-13T13:01:46.625Z,17.70
2018-05-13T13:04:14.259Z,17.20
2018-05-13T13:06:42.122Z,17.30
2018-05-13T13:09:10.056Z,17.50
2018-05-13T13:11:37.696Z,16.80
2018-05-13T13:14:05.684Z,17.10
2018-05-13T13:16:33.312Z,18.00
2018-05-13T13:19:01.000Z,17.60
2018-05-13T13:21:28.632Z,17.60
2018-05-13T13:23:56.244Z,17.30
2018-05-13T13:26:23.872Z,16.10
2018-05-13T13:28:51.485Z,15.60
2018-05-13T13:31:19.883Z,15.40
2018-05-13T13:33:48.267Z,15.90
2018-05-13T13:36:15.881Z,15.90
2018-05-13T13:38:43.505Z,15.50
2018-05-13T13:41:11.135Z,15.90
2018-05-13T13:43:38.788Z,15.90
2018-05-13T13:46:07.164Z,15.70
2018-05-13T13:48:35.588Z,15.60
2018-05-13T13:51:03.232Z,15.50
2018-05-13T13:53:30.868Z,15.60
2018-05-13T13:55:59.260Z,15.70
2018-05-13T13:58:26.873Z,15.60
2018-05-13T14:00:54.492Z,15.60
2018-05-13T14:03:22.129Z,15.30
2018-05-13T14:05:50.594Z,15.60
2018-05-13T14:08:18.231Z,15.60
2018-05-13T14:10:45.868Z,15.20
2018-05-13T14:13:13.481Z,15.00
2018-05-13T14:15:41.871Z,14.70
2018-05-13T14:18:10.604Z,15.50
2018-05-13T14:20:38.229Z,15.50
2018-05-13T14:23:05.880Z,15.40
2018-05-13T14:25:33.508Z,15.10
2018-05-13T14:28:01.125Z,15.10
2018-05-13T14:30:28.793Z,15.20
2018-05-13T14:32:56.462Z,15.30
2018-05-13T14:35:24.072Z,15.90
2018-05-13T14:37:52.457Z,16.70
2018-05-13T14:40:20.847Z,16.00
2018-05-13T14:42:48.496Z,16.00
2018-05-13T14:45:16.982Z,15.30
2018-05-13T14:47:44.592Z,15.20
2018-05-13T14:50:12.192Z,15.20
2018-05-13T14:52:40.580Z,14.90
2018-05-13T14:55:08.208Z,14.80
2018-05-13T14:57:35.819Z,14.90
2018-05-13T15:00:03.477Z,15.00
2018-05-13T15:02:31.128Z,15.00
2018-05-13T15:04:58.761Z,15.50
2018-05-13T15:07:31.877Z,16.10
2018-05-13T15:09:59.504Z,16.20
2018-05-13T15:12:27.119Z,16.90
2018-05-13T15:14:54.748Z,17.00
2018-05-13T15:17:22.372Z,17.00
2018-05-13T15:19:50.021Z,17.20
2018-05-13T15:22:17.660Z,17.60
2018-05-13T15:24:45.307Z,17.40
2018-05-13T15:27:13.297Z,17.30
2018-05-13T15:29:40.908Z,17.90
2018-05-13T15:32:09.294Z,17.40
2018-05-13T15:34:37.675Z,16.90
2018-05-13T15:37:05.297Z,16.90
2018-05-13T15:39:32.918Z,17.30
2018-05-13T15:42:00.568Z,17.00
2018-05-13T15:44:28.184Z,16.80
2018-05-13T15:46:55.808Z,17.60
2018-05-13T15:49:23.469Z,16.90
2018-05-13T15:51:51.096Z,17.30
2018-05-13T15:54:18.749Z,17.20
2018-05-13T15:56:47.128Z,16.40
2018-05-13T15:59:15.520Z,16.50
2018-05-13T16:01:43.145Z,16.50
2018-05-13T16:04:10.776Z,16.40
2018-05-13T16:06:38.413Z,16.70
2018-05-13T16:09:06.081Z,16.50
2018-05-13T16:11:33.721Z,16.50
2018-05-13T16:14:01.580Z,16.60
2018-05-13T16:16:29.206Z,17.20
2018-05-13T16:18:56.967Z,17.00
2018-05-13T16:21:24.536Z,17.10
2018-05-13T16:23:52.931Z,17.50
2018-05-13T16:26:21.328Z,17.50
2018-05-13T16:28:48.960Z,17.50
2018-05-13T16:31:17.359Z,19.00
2018-05-13T16:33:45.257Z,19.00
2018-05-13T16:36:12.891Z,20.00
2018-05-13T16:38:40.504Z,19.90
2018-05-13T16:41:08.120Z,19.60
2018-05-13T16:43:35.753Z,20.00
2018-05-13T16:46:04.148Z,20.80
2018-05-13T16:48:31.789Z,20.70
2018-05-13T16:51:00.184Z,22.00
2018-05-13T16:53:27.799Z,21.90
2018-05-13T16:55:55.456Z,22.30
2018-05-13T16:58:23.104Z,22.60
2018-05-13T17:00:50.732Z,22.70
2018-05-13T17:03:18.361Z,22.60
2018-05-13T17:05:46.752Z,23.00
2018-05-13T17:08:14.381Z,22.90
2018-05-13T17:10:42.020Z,23.00
2018-05-13T17:13:09.653Z,24.20
2018-05-13T17:15:37.288Z,24.30
2018-05-13T17:18:05.700Z,24.40
2018-05-13T17:20:33.324Z,24.30
2018-05-13T17:23:01.733Z,25.00
2018-05-13T17:25:29.361Z,25.00
2018-05-13T17:27:57.378Z,25.00
2018-05-13T17:30:25.772Z,26.50
2018-05-13T17:32:54.159Z,26.50
2018-05-13T17:35:21.786Z,26.40
2018-05-13T17:37:49.408Z,26.70
2018-05-13T17:40:18.140Z,27.30
2018-05-13T17:42:45.768Z,27.20
2018-05-13T17:45:13.396Z,27.60
2018-05-13T17:47:41.034Z,28.00
2018-05-13T17:50:09.428Z,28.70
2018-05-13T17:52:37.055Z,28.70
2018-05-13T17:55:05.025Z,29.20
2018-05-13T17:57:32.657Z,29.30
2018-05-13T18:00:00.555Z,29.70
2018-05-13T18:02:28.241Z,30.60
2018-05-13T18:04:55.834Z,31.40
2018-05-13T18:07:24.228Z,32.00
2018-05-13T18:09:51.861Z,32.00
2018-05-13T18:12:20.253Z,33.40
2018-05-13T18:14:47.893Z,33.30
2018-05-13T18:17:16.288Z,35.50
2018-05-13T18:19:43.905Z,35.40
2018-05-13T18:22:11.532Z,36.30
2018-05-13T18:24:39.260Z,37.50
2018-05-13T18:27:06.815Z,38.10
2018-05-13T18:29:35.220Z,39.10
2018-05-13T18:32:02.840Z,39.00
2018-05-13T18:34:30.499Z,39.70
2018-05-13T18:36:58.121Z,40.10
2018-05-13T18:39:26.088Z,40.70
2018-05-13T18:41:53.700Z,41.10
2018-05-13T18:44:22.094Z,42.00
2018-05-13T18:46:49.720Z,42.00
2018-05-13T18:49:17.333Z,42.50
2018-05-13T18:51:44.956Z,42.90
2018-05-13T18:54:13.368Z,43.10
2018-05-13T18:56:40.991Z,43.10
2018-05-13T18:59:09.756Z,43.10
2018-05-13T19:01:37.398Z,43.00
2018-05-13T19:04:05.048Z,43.20
2018-05-13T19:06:32.668Z,43.40
2018-05-13T19:09:01.108Z,43.70
2018-05-13T19:11:28.732Z,43.70
2018-05-13T19:13:56.396Z,43.70
2018-05-13T19:16:24.038Z,43.90
2018-05-13T19:18:52.420Z,44.30
2018-05-13T19:21:20.048Z,44.30
2018-05-13T19:23:47.978Z,44.40
2018-05-13T19:26:15.596Z,44.60
2018-05-13T19:28:43.985Z,45.00
2018-05-13T19:31:11.632Z,45.00
2018-05-13T19:33:40.074Z,45.50
2018-05-13T19:36:07.708Z,45.50
2018-05-13T19:38:35.340Z,45.60
2018-05-13T19:41:03.758Z,45.90
2018-05-13T19:43:31.830Z,45.80
2018-05-13T19:45:59.464Z,45.90
2018-05-13T19:48:27.089Z,45.90
2018-05-13T19:50:54.709Z,45.80
2018-05-13T19:53:22.577Z,46.00
2018-05-13T19:55:50.650Z,45.90
2018-05-13T19:58:18.280Z,46.10
2018-05-13T20:00:45.916Z,46.20
2018-05-13T20:03:14.796Z,46.30
2018-05-13T20:05:42.421Z,46.20
2018-05-13T20:08:10.056Z,46.40
2018-05-13T20:10:37.676Z,46.50
2018-05-13T20:13:05.289Z,46.80
2018-05-13T20:15:33.288Z,46.90
2018-05-13T20:18:00.932Z,47.10
2018-05-13T20:20:28.569Z,47.20
2018-05-13T20:23:08.003Z,48.00
2018-05-13T20:25:35.638Z,47.50
2018-05-13T20:28:04.020Z,47.20
2018-05-13T20:30:32.443Z,47.40
2018-05-13T20:33:00.056Z,47.30
2018-05-13T20:35:28.435Z,48.00
2018-05-13T20:37:56.840Z,47.50
2018-05-13T20:40:24.449Z,47.40
2018-05-13T20:42:52.083Z,47.30
2018-05-13T20:45:19.711Z,47.60
2018-05-13T20:47:47.320Z,47.80
2018-05-13T20:50:14.950Z,47.90
2018-05-13T20:52:42.585Z,47.90
2018-05-13T20:55:10.217Z,48.10
2018-05-13T20:57:38.960Z,48.30
2018-05-13T21:00:06.596Z,48.20
2018-05-13T21:02:34.236Z,48.30
2018-05-13T21:05:03.006Z,48.00
2018-05-13T21:07:30.645Z,48.60
2018-05-13T21:09:58.303Z,48.60
2018-05-13T21:12:25.931Z,48.90
2018-05-13T21:14:53.572Z,49.00
2018-05-13T21:17:21.960Z,48.60
2018-05-13T21:19:49.580Z,49.10
2018-05-13T21:22:17.225Z,49.10
2018-05-13T21:24:44.847Z,49.20
2018-05-13T21:27:12.453Z,49.40
2018-05-13T21:29:40.086Z,49.20
2018-05-13T21:32:07.701Z,49.40
2018-05-13T21:34:36.105Z,49.50
2018-05-13T21:37:04.093Z,49.50
2018-05-13T21:39:31.712Z,49.70
2018-05-13T21:41:59.384Z,49.60
2018-05-13T21:44:27.002Z,49.80
2018-05-13T21:46:54.616Z,49.90
2018-05-13T21:49:22.244Z,49.90
2018-05-13T21:51:50.634Z,50.00
2018-05-13T21:54:18.498Z,50.00
2018-05-13T21:56:46.881Z,50.20
2018-05-13T21:59:14.510Z,50.20
2018-05-13T22:01:42.151Z,49.90
2018-05-13T22:04:10.202Z,50.60
2018-05-13T22:06:37.848Z,50.80
2018-05-13T22:09:05.522Z,50.80
2018-05-13T22:11:33.136Z,50.80
2018-05-13T22:14:01.540Z,52.00
2018-05-13T22:16:29.160Z,51.30
2018-05-13T22:18:57.195Z,51.60
2018-05-13T22:21:25.261Z,52.50
2018-05-13T22:23:52.873Z,52.00
2018-05-13T22:26:21.333Z,52.50
2018-05-13T22:28:48.961Z,52.40
2018-05-13T22:31:16.572Z,52.90
2018-05-13T22:33:44.961Z,53.40
2018-05-13T22:36:13.332Z,53.80
2018-05-13T22:38:41.717Z,54.00
2018-05-13T22:41:10.104Z,54.30
2018-05-13T22:43:37.749Z,54.20
2018-05-13T22:46:05.395Z,54.50
2018-05-13T22:48:33.035Z,54.60
2018-05-13T22:51:00.648Z,54.60
2018-05-13T22:53:28.264Z,54.70
2018-05-13T22:55:55.895Z,54.70
2018-05-13T22:58:23.523Z,55.50
2018-05-13T23:00:51.152Z,55.00
2018-05-13T23:03:19.540Z,55.50
2018-05-13T23:05:47.921Z,55.80
2018-05-13T23:08:16.299Z,55.90
2018-05-13T23:10:44.688Z,56.10
2018-05-13T23:13:12.312Z,56.60
2018-05-13T23:15:39.923Z,56.30
2018-05-13T23:18:07.540Z,56.50
2018-05-13T23:20:35.156Z,56.50
2018-05-13T23:23:02.823Z,56.10
2018-05-13T23:25:30.446Z,56.90
2018-05-13T23:27:58.056Z,56.90
2018-05-13T23:30:25.699Z,57.10
2018-05-13T23:32:53.323Z,57.30
2018-05-13T23:35:21.716Z,57.70
2018-05-13T23:37:49.333Z,57.70
2018-05-13T23:40:16.954Z,57.90
2018-05-13T23:42:44.571Z,58.20
2018-05-13T23:45:12.948Z,58.70
2018-05-13T23:47:41.692Z,58.60
2018-05-13T23:50:10.075Z,59.00
2018-05-13T23:52:37.679Z,59.00
2018-05-13T23:55:06.075Z,59.30
2018-05-13T23:57:33.960Z,59.20
